createdAt,value
2018-08-20T00:00:44.468Z,99.90
2018-08-20T00:03:13.509Z,99.90
2018-08-20T00:05:46.887Z,99.90
2018-08-20T00:08:15.720Z,99.90
2018-08-20T00:10:44.564Z,99.90
2018-08-20T00:13:13.384Z,99.90
2018-08-20T00:15:42.252Z,99.90
2018-08-20T00:18:17.436Z,99.90
2018-08-20T00:20:46.250Z,99.90
2018-08-20T00:23:15.141Z,99.90
2018-08-20T00:25:43.997Z,99.90
2018-08-20T00:28:12.907Z,99.90
2018-08-20T00:30:43.247Z,99.90
2018-08-20T00:33:12.171Z,99.90
2018-08-20T00:35:41.189Z,99.90
2018-08-20T00:38:10.006Z,99.90
2018-08-20T00:40:39.003Z,99.90
2018-08-20T00:43:07.846Z,99.90
2018-08-20T00:45:36.751Z,99.90
2018-08-20T00:48:05.727Z,99.90
2018-08-20T00:50:34.583Z,99.90
2018-08-20T00:53:03.464Z,99.90
2018-08-20T00:55:32.308Z,99.90
2018-08-20T00:58:01.116Z,99.90
2018-08-20T01:00:29.943Z,99.90
2018-08-20T01:02:58.750Z,99.90
2018-08-20T01:05:28.410Z,99.90
2018-08-20T01:07:57.204Z,99.90
2018-08-20T01:10:26.037Z,99.90
2018-08-20T01:12:54.863Z,99.90
2018-08-20T01:15:23.782Z,99.90
2018-08-20T01:17:52.638Z,99.90
2018-08-20T01:20:21.443Z,99.90
2018-08-20T01:22:50.296Z,99.90
2018-08-20T01:25:19.163Z,99.90
2018-08-20T01:27:47.993Z,99.90
2018-08-20T01:30:16.962Z,99.90
2018-08-20T01:32:45.799Z,99.90
2018-08-20T01:35:27.604Z,99.90
2018-08-20T01:37:56.434Z,99.90
2018-08-20T01:40:25.324Z,99.90
2018-08-20T01:42:54.151Z,99.90
2018-08-20T01:45:22.978Z,99.90
2018-08-20T01:47:51.834Z,99.90
2018-08-20T01:50:20.650Z,99.90
2018-08-20T01:52:49.444Z,99.90
2018-08-20T01:55:18.279Z,99.90
2018-08-20T01:57:47.070Z,99.90
2018-08-20T02:00:15.915Z,99.90
2018-08-20T02:02:49.295Z,99.90
2018-08-20T02:05:18.172Z,99.90
2018-08-20T02:07:47.080Z,99.90
2018-08-20T02:10:16.035Z,99.90
2018-08-20T02:12:44.901Z,99.90
2018-08-20T02:15:13.814Z,99.90
2018-08-20T02:17:42.679Z,99.90
2018-08-20T02:20:11.577Z,99.90
2018-08-20T02:22:40.459Z,99.90
2018-08-20T02:25:09.306Z,99.90
2018-08-20T02:27:38.130Z,99.90
2018-08-20T02:30:07.287Z,99.90
2018-08-20T02:32:36.515Z,99.90
2018-08-20T02:35:06.116Z,99.90
2018-08-20T02:37:40.624Z,99.90
2018-08-20T02:40:10.437Z,99.90
2018-08-20T02:42:39.323Z,99.90
2018-08-20T02:45:14.248Z,99.90
2018-08-20T02:47:43.530Z,99.90
2018-08-20T02:50:13.059Z,99.90
2018-08-20T02:52:42.775Z,99.90
2018-08-20T02:55:11.670Z,99.90
2018-08-20T02:57:40.592Z,99.90
2018-08-20T03:00:12.772Z,99.90
2018-08-20T03:02:41.715Z,99.90
2018-08-20T03:05:11.655Z,99.90
2018-08-20T03:07:40.504Z,99.90
2018-08-20T03:10:11.609Z,99.90
2018-08-20T03:12:40.914Z,99.90
2018-08-20T03:15:10.630Z,99.90
2018-08-20T03:17:39.455Z,99.90
2018-08-20T03:20:08.314Z,99.90
2018-08-20T03:22:37.140Z,99.90
2018-08-20T03:25:06.815Z,99.90
2018-08-20T03:27:35.710Z,99.90
2018-08-20T03:30:06.529Z,99.90
2018-08-20T03:32:35.340Z,99.90
2018-08-20T03:35:05.925Z,99.90
2018-08-20T03:37:34.866Z,99.90
2018-08-20T03:40:04.420Z,99.90
2018-08-20T03:42:33.375Z,99.90
2018-08-20T03:45:02.231Z,99.90
2018-08-20T03:47:31.099Z,99.90
2018-08-20T03:49:59.930Z,99.90
2018-08-20T03:52:29.081Z,99.90
2018-08-20T03:54:57.907Z,99.90
2018-08-20T03:57:26.727Z,99.90
2018-08-20T03:59:55.519Z,99.90
2018-08-20T04:02:24.333Z,99.90
2018-08-20T04:04:53.150Z,99.90
2018-08-20T04:07:21.967Z,99.90
2018-08-20T04:09:50.768Z,99.90
2018-08-20T04:12:19.642Z,99.90
2018-08-20T04:14:48.476Z,99.90
2018-08-20T04:17:17.283Z,99.90
2018-08-20T04:19:46.116Z,99.90
2018-08-20T04:22:15.020Z,99.90
2018-08-20T04:24:43.855Z,99.90
2018-08-20T04:27:12.724Z,99.90
2018-08-20T04:29:41.535Z,99.90
2018-08-20T04:32:10.356Z,99.90
2018-08-20T04:34:39.175Z,99.90
2018-08-20T04:37:08.038Z,99.90
2018-08-20T04:39:36.866Z,99.90
2018-08-20T04:42:05.759Z,99.90
2018-08-20T04:44:34.581Z,99.90
2018-08-20T04:47:03.466Z,99.90
2018-08-20T04:49:32.272Z,99.90
2018-08-20T04:52:01.114Z,99.90
2018-08-20T04:54:30.002Z,99.90
2018-08-20T04:56:59.022Z,99.90
2018-08-20T04:59:27.834Z,99.90
2018-08-20T05:01:56.705Z,99.90
2018-08-20T05:04:25.546Z,99.90
2018-08-20T05:06:54.397Z,99.90
2018-08-20T05:09:23.258Z,99.90
2018-08-20T05:11:52.094Z,99.90
2018-08-20T05:14:20.953Z,99.90
2018-08-20T05:16:49.808Z,99.90
2018-08-20T05:19:18.877Z,99.90
2018-08-20T05:21:47.688Z,99.90
2018-08-20T05:24:16.496Z,99.90
2018-08-20T05:26:45.353Z,99.90
2018-08-20T05:29:14.182Z,99.90
2018-08-20T05:31:43.023Z,99.90
2018-08-20T05:34:11.842Z,99.90
2018-08-20T05:36:40.700Z,99.90
2018-08-20T05:39:10.587Z,99.90
2018-08-20T05:41:39.430Z,99.90
2018-08-20T05:44:08.306Z,99.90
2018-08-20T05:46:37.114Z,99.90
2018-08-20T05:49:06.243Z,99.90
2018-08-20T05:51:35.045Z,99.90
2018-08-20T05:54:04.212Z,99.90
2018-08-20T05:56:33.054Z,99.90
2018-08-20T05:59:01.971Z,99.90
2018-08-20T06:01:30.827Z,99.90
2018-08-20T06:03:59.667Z,99.90
2018-08-20T06:06:28.762Z,99.90
2018-08-20T06:08:57.766Z,99.90
2018-08-20T06:11:26.599Z,99.90
2018-08-20T06:13:55.485Z,99.90
2018-08-20T06:16:24.326Z,99.90
2018-08-20T06:18:53.347Z,99.90
2018-08-20T06:21:22.184Z,99.90
2018-08-20T06:23:51.011Z,99.90
2018-08-20T06:26:19.918Z,99.90
2018-08-20T06:28:49.631Z,99.90
2018-08-20T06:31:18.591Z,99.90
2018-08-20T06:33:47.457Z,99.90
2018-08-20T06:36:16.307Z,99.90
2018-08-20T06:38:45.127Z,99.90
2018-08-20T06:41:14.932Z,99.90
2018-08-20T06:43:43.771Z,99.90
2018-08-20T06:46:13.395Z,99.90
2018-08-20T06:48:42.348Z,99.90
2018-08-20T06:51:11.163Z,99.90
2018-08-20T06:53:39.982Z,99.90
2018-08-20T06:56:08.815Z,99.90
2018-08-20T06:58:37.649Z,99.90
2018-08-20T07:01:06.735Z,99.90
2018-08-20T07:03:35.537Z,99.90
2018-08-20T07:06:04.467Z,99.90
2018-08-20T07:08:33.283Z,99.90
2018-08-20T07:11:02.114Z,99.90
2018-08-20T07:13:34.602Z,99.90
2018-08-20T07:16:04.267Z,99.90
2018-08-20T07:18:33.190Z,99.90
2018-08-20T07:21:02.090Z,99.90
2018-08-20T07:23:31.083Z,99.90
2018-08-20T07:25:59.926Z,99.90
2018-08-20T07:28:28.763Z,99.90
2018-08-20T07:30:57.682Z,99.90
2018-08-20T07:33:26.542Z,99.90
2018-08-20T07:35:55.411Z,99.90
2018-08-20T07:38:24.251Z,99.90
2018-08-20T07:40:53.128Z,99.90
2018-08-20T07:43:21.947Z,99.90
2018-08-20T07:45:50.810Z,99.90
2018-08-20T07:48:19.655Z,99.90
2018-08-20T07:50:48.591Z,99.90
2018-08-20T07:53:17.471Z,99.90
2018-08-20T07:55:46.427Z,99.90
2018-08-20T07:58:15.263Z,99.60
2018-08-20T08:00:44.130Z,99.90
2018-08-20T08:03:12.991Z,99.90
2018-08-20T08:05:41.843Z,99.90
2018-08-20T08:08:10.758Z,99.60
2018-08-20T08:10:39.678Z,99.70
2018-08-20T08:13:08.478Z,99.50
2018-08-20T08:15:37.375Z,99.40
2018-08-20T08:18:06.635Z,99.10
2018-08-20T08:20:35.448Z,99.30
2018-08-20T08:23:04.622Z,98.80
2018-08-20T08:25:33.467Z,98.80
2018-08-20T08:28:02.293Z,98.90
2018-08-20T08:30:31.187Z,98.20
2018-08-20T08:33:00.017Z,97.60
2018-08-20T08:35:28.889Z,97.20
2018-08-20T08:37:57.819Z,97.00
2018-08-20T08:40:26.603Z,97.20
2018-08-20T08:42:55.475Z,96.80
2018-08-20T08:45:24.324Z,96.90
2018-08-20T08:47:53.183Z,96.20
2018-08-20T08:50:22.123Z,95.60
2018-08-20T08:52:50.954Z,95.40
2018-08-20T08:55:19.817Z,95.80
2018-08-20T08:57:48.773Z,96.50
2018-08-20T09:00:19.789Z,95.80
2018-08-20T09:02:48.719Z,95.30
2018-08-20T09:05:17.621Z,96.40
2018-08-20T09:07:46.458Z,95.30
2018-08-20T09:10:15.370Z,95.00
2018-08-20T09:12:44.222Z,95.00
2018-08-20T09:15:16.030Z,94.60
2018-08-20T09:17:45.358Z,95.10
2018-08-20T09:20:16.480Z,95.50
2018-08-20T09:22:45.417Z,96.40
2018-08-20T09:25:14.802Z,94.90
2018-08-20T09:27:44.389Z,95.10
2018-08-20T09:30:16.937Z,95.10
2018-08-20T09:32:46.479Z,95.30
2018-08-20T09:35:15.462Z,95.50
2018-08-20T09:37:44.389Z,95.10
2018-08-20T09:40:13.687Z,95.60
2018-08-20T09:42:42.854Z,94.90
2018-08-20T09:45:11.776Z,95.30
2018-08-20T09:47:41.461Z,94.50
2018-08-20T09:50:13.689Z,92.70
2018-08-20T09:52:42.759Z,93.10
2018-08-20T09:55:11.593Z,92.10
2018-08-20T09:57:40.593Z,92.20
2018-08-20T10:00:18.049Z,92.90
2018-08-20T10:02:46.899Z,94.70
2018-08-20T10:05:16.306Z,92.00
2018-08-20T10:07:45.675Z,92.00
2018-08-20T10:10:15.015Z,91.90
2018-08-20T10:12:44.695Z,92.70
2018-08-20T10:15:14.130Z,92.30
2018-08-20T10:17:43.528Z,91.60
2018-08-20T10:20:13.555Z,91.20
2018-08-20T10:22:42.424Z,92.20
2018-08-20T10:25:11.351Z,90.80
2018-08-20T10:27:40.185Z,90.80
2018-08-20T10:30:10.599Z,90.80
2018-08-20T10:32:39.438Z,90.80
2018-08-20T10:35:08.379Z,90.70
2018-08-20T10:37:37.301Z,90.70
2018-08-20T10:40:07.350Z,90.20
2018-08-20T10:42:36.811Z,90.20
2018-08-20T10:45:18.966Z,89.40
2018-08-20T10:47:48.922Z,90.30
2018-08-20T10:50:19.062Z,88.90
2018-08-20T10:52:49.158Z,86.30
2018-08-20T10:55:18.045Z,86.40
2018-08-20T10:57:46.938Z,90.20
2018-08-20T11:00:16.262Z,90.30
2018-08-20T11:02:45.075Z,87.60
2018-08-20T11:05:17.243Z,86.40
2018-08-20T11:07:46.263Z,89.80
2018-08-20T11:10:15.131Z,85.60
2018-08-20T11:12:43.991Z,84.50
2018-08-20T11:15:12.823Z,85.80
2018-08-20T11:17:41.665Z,81.90
2018-08-20T11:20:13.631Z,80.10
2018-08-20T11:22:42.546Z,82.00
2018-08-20T11:25:12.214Z,87.70
2018-08-20T11:27:41.235Z,81.60
2018-08-20T11:30:12.332Z,84.10
2018-08-20T11:32:41.327Z,79.80
2018-08-20T11:35:10.850Z,78.30
2018-08-20T11:37:39.675Z,75.70
2018-08-20T11:40:09.149Z,82.70
2018-08-20T11:42:38.320Z,80.80
2018-08-20T11:45:10.723Z,76.10
2018-08-20T11:47:39.610Z,78.50
2018-08-20T11:50:08.807Z,74.10
2018-08-20T11:52:38.427Z,75.20
2018-08-20T11:55:07.508Z,74.10
2018-08-20T11:57:36.528Z,70.90
2018-08-20T12:00:08.475Z,70.90
2018-08-20T12:02:37.445Z,70.50
2018-08-20T12:05:07.411Z,69.90
2018-08-20T12:07:36.365Z,69.70
2018-08-20T12:10:07.367Z,71.20
2018-08-20T12:12:36.494Z,69.00
2018-08-20T12:15:07.024Z,71.60
2018-08-20T12:17:35.897Z,65.10
2018-08-20T12:20:05.831Z,66.90
2018-08-20T12:22:34.672Z,63.80
2018-08-20T12:25:04.426Z,62.50
2018-08-20T12:27:33.294Z,62.60
2018-08-20T12:30:02.132Z,62.40
2018-08-20T12:32:30.929Z,60.40
2018-08-20T12:34:59.810Z,61.50
2018-08-20T12:37:28.615Z,61.40
2018-08-20T12:39:57.507Z,64.70
2018-08-20T12:42:26.273Z,62.30
2018-08-20T12:44:55.091Z,59.70
2018-08-20T12:47:23.907Z,58.30
2018-08-20T12:49:52.703Z,58.80
2018-08-20T12:52:21.583Z,55.80
2018-08-20T12:54:50.396Z,55.30
2018-08-20T12:57:19.204Z,55.70
2018-08-20T12:59:52.308Z,54.80
2018-08-20T13:02:21.107Z,59.00
2018-08-20T13:04:50.194Z,58.80
2018-08-20T13:07:19.047Z,54.00
2018-08-20T13:09:47.844Z,52.80
2018-08-20T13:12:16.687Z,51.40
2018-08-20T13:14:46.155Z,53.20
2018-08-20T13:17:16.254Z,55.30
2018-08-20T13:19:45.087Z,54.20
2018-08-20T13:22:13.898Z,53.70
2018-08-20T13:24:42.748Z,56.00
2018-08-20T13:27:11.620Z,56.70
2018-08-20T13:29:40.461Z,55.90
2018-08-20T13:32:09.399Z,55.30
2018-08-20T13:34:38.251Z,54.30
2018-08-20T13:37:07.164Z,53.90
2018-08-20T13:39:36.010Z,51.30
2018-08-20T13:42:04.961Z,50.10
2018-08-20T13:44:33.809Z,48.50
2018-08-20T13:47:02.663Z,51.70
2018-08-20T13:49:31.479Z,52.80
2018-08-20T13:52:00.319Z,54.80
2018-08-20T13:54:29.155Z,55.30
2018-08-20T13:56:57.951Z,55.20
2018-08-20T13:59:26.790Z,55.60
2018-08-20T14:01:55.608Z,58.10
2018-08-20T14:04:24.427Z,59.10
2018-08-20T14:06:53.260Z,59.30
2018-08-20T14:09:22.079Z,59.10
2018-08-20T14:11:50.883Z,61.50
2018-08-20T14:14:19.719Z,62.00
2018-08-20T14:16:48.547Z,62.80
2018-08-20T14:19:17.434Z,64.50
2018-08-20T14:21:46.303Z,63.80
2018-08-20T14:24:15.126Z,64.60
2018-08-20T14:26:44.213Z,66.00
2018-08-20T14:29:13.027Z,66.90
2018-08-20T14:31:41.826Z,64.90
2018-08-20T14:34:11.766Z,66.50
2018-08-20T14:36:40.706Z,65.40
2018-08-20T14:39:09.495Z,66.00
2018-08-20T14:41:38.336Z,65.70
2018-08-20T14:44:07.187Z,67.30
2018-08-20T14:46:36.546Z,66.90
2018-08-20T14:49:05.420Z,68.30
2018-08-20T14:51:34.312Z,70.10
2018-08-20T14:54:03.263Z,68.40
2018-08-20T14:56:32.196Z,69.20
2018-08-20T14:59:01.121Z,68.70
2018-08-20T15:01:29.979Z,67.60
2018-08-20T15:03:58.848Z,68.60
2018-08-20T15:06:27.806Z,70.20
2018-08-20T15:08:56.659Z,67.70
2018-08-20T15:11:25.551Z,68.30
2018-08-20T15:13:54.407Z,69.00
2018-08-20T15:16:23.320Z,68.20
2018-08-20T15:18:52.179Z,70.00
2018-08-20T15:21:21.060Z,70.40
2018-08-20T15:23:49.907Z,70.80
2018-08-20T15:26:18.799Z,72.50
2018-08-20T15:28:47.659Z,71.30
2018-08-20T15:31:16.483Z,71.60
2018-08-20T15:33:45.318Z,73.30
2018-08-20T15:36:14.238Z,75.30
2018-08-20T15:38:43.084Z,77.30
2018-08-20T15:41:11.978Z,75.40
2018-08-20T15:43:40.839Z,74.80
2018-08-20T15:46:09.771Z,75.80
2018-08-20T15:48:38.618Z,76.40
2018-08-20T15:51:07.464Z,75.50
2018-08-20T15:53:36.323Z,75.40
2018-08-20T15:56:05.250Z,77.60
2018-08-20T15:58:34.083Z,75.90
2018-08-20T16:01:02.922Z,76.40
2018-08-20T16:03:31.876Z,77.40
2018-08-20T16:06:00.802Z,78.00
2018-08-20T16:08:29.699Z,78.50
2018-08-20T16:10:58.531Z,80.10
2018-08-20T16:13:27.421Z,81.50
2018-08-20T16:15:56.392Z,83.20
2018-08-20T16:18:25.265Z,84.40
2018-08-20T16:20:54.087Z,84.90
2018-08-20T16:23:22.942Z,85.30
2018-08-20T16:25:51.832Z,86.60
2018-08-20T16:28:20.678Z,85.90
2018-08-20T16:30:49.555Z,87.80
2018-08-20T16:33:18.466Z,86.10
2018-08-20T16:35:47.459Z,85.70
2018-08-20T16:38:16.339Z,85.30
2018-08-20T16:40:45.247Z,85.80
2018-08-20T16:43:14.100Z,86.20
2018-08-20T16:45:43.042Z,87.50
2018-08-20T16:48:12.192Z,88.20
2018-08-20T16:50:41.085Z,90.20
2018-08-20T16:53:10.070Z,90.50
2018-08-20T16:55:39.081Z,90.60
2018-08-20T16:58:08.014Z,91.60
2018-08-20T17:00:36.876Z,91.20
2018-08-20T17:03:10.742Z,91.70
2018-08-20T17:05:51.474Z,90.80
2018-08-20T17:08:29.924Z,91.00
2018-08-20T17:10:58.912Z,91.20
2018-08-20T17:13:28.019Z,91.60
2018-08-20T17:15:56.955Z,92.00
2018-08-20T17:18:25.928Z,92.60
2018-08-20T17:20:54.888Z,92.50
2018-08-20T17:23:24.515Z,93.20
2018-08-20T17:25:56.439Z,93.00
2018-08-20T17:28:26.512Z,93.60
2018-08-20T17:30:59.084Z,94.10
2018-08-20T17:33:31.554Z,94.70
2018-08-20T17:36:00.550Z,95.00
2018-08-20T17:38:29.511Z,95.10
2018-08-20T17:40:59.211Z,95.30
2018-08-20T17:43:28.107Z,95.30
2018-08-20T17:45:57.523Z,95.60
2018-08-20T17:48:28.282Z,95.60
2018-08-20T17:50:57.643Z,95.80
2018-08-20T17:54:01.740Z,95.90
2018-08-20T17:56:30.676Z,96.30
2018-08-20T17:59:08.673Z,96.60
2018-08-20T18:01:37.608Z,96.40
2018-08-20T18:04:06.777Z,96.60
2018-08-20T18:06:48.359Z,96.60
2018-08-20T18:09:17.216Z,96.90
2018-08-20T18:11:49.136Z,97.20
2018-08-20T18:14:20.038Z,97.30
2018-08-20T18:16:48.963Z,97.40
2018-08-20T18:19:18.123Z,97.60
2018-08-20T18:21:47.215Z,97.30
2018-08-20T18:24:18.132Z,97.40
2018-08-20T18:26:51.554Z,97.40
2018-08-20T18:29:20.540Z,97.70
2018-08-20T18:32:00.711Z,97.80
2018-08-20T18:34:29.730Z,97.60
2018-08-20T18:37:02.674Z,97.90
2018-08-20T18:39:31.580Z,97.70
2018-08-20T18:42:02.915Z,97.50
2018-08-20T18:44:31.839Z,97.90
2018-08-20T18:47:00.896Z,97.30
2018-08-20T18:49:30.813Z,97.20
2018-08-20T18:52:06.700Z,96.90
2018-08-20T18:54:38.012Z,97.00
2018-08-20T18:57:07.043Z,97.20
2018-08-20T18:59:37.907Z,97.30
2018-08-20T19:02:10.023Z,97.60
2018-08-20T19:04:46.470Z,97.50
2018-08-20T19:07:15.899Z,97.70
2018-08-20T19:09:49.471Z,97.90
2018-08-20T19:12:18.506Z,97.80
2018-08-20T19:14:47.872Z,98.40
2018-08-20T19:17:23.169Z,97.50
2018-08-20T19:19:53.147Z,97.10
2018-08-20T19:22:26.561Z,97.00
2018-08-20T19:24:56.276Z,97.20
2018-08-20T19:27:31.350Z,97.70
2018-08-20T19:30:11.443Z,97.90
2018-08-20T19:32:41.102Z,98.20
2018-08-20T19:35:10.988Z,98.50
2018-08-20T19:37:39.859Z,98.60
2018-08-20T19:40:09.365Z,98.70
2018-08-20T19:42:38.385Z,98.90
2018-08-20T19:45:12.368Z,99.10
2018-08-20T19:47:42.408Z,99.30
2018-08-20T19:50:13.043Z,99.90
2018-08-20T19:52:42.595Z,99.90
2018-08-20T19:55:12.031Z,99.90
2018-08-20T19:57:40.978Z,99.90
2018-08-20T20:00:13.131Z,99.90
2018-08-20T20:02:43.187Z,99.90
2018-08-20T20:05:14.457Z,99.90
2018-08-20T20:07:56.655Z,99.90
2018-08-20T20:10:26.419Z,99.90
2018-08-20T20:12:55.661Z,99.90
2018-08-20T20:15:25.622Z,99.90
2018-08-20T20:17:55.497Z,99.90
2018-08-20T20:20:24.310Z,99.90
2018-08-20T20:22:53.393Z,99.90
2018-08-20T20:25:22.374Z,99.90
2018-08-20T20:27:51.244Z,99.90
2018-08-20T20:30:20.122Z,99.90
2018-08-20T20:32:49.265Z,99.90
2018-08-20T20:35:18.370Z,99.90
2018-08-20T20:37:47.214Z,99.90
2018-08-20T20:40:16.064Z,99.90
2018-08-20T20:42:44.986Z,99.90
2018-08-20T20:45:13.907Z,99.90
2018-08-20T20:47:42.741Z,99.90
2018-08-20T20:50:11.607Z,99.90
2018-08-20T20:52:40.820Z,99.90
2018-08-20T20:55:09.631Z,99.90
2018-08-20T20:57:38.506Z,99.90
2018-08-20T21:00:08.959Z,99.90
2018-08-20T21:02:38.491Z,99.90
2018-08-20T21:05:09.695Z,99.90
2018-08-20T21:07:38.571Z,99.90
2018-08-20T21:10:08.090Z,99.90
2018-08-20T21:12:36.899Z,99.90
2018-08-20T21:15:07.732Z,99.90
2018-08-20T21:17:36.941Z,99.90
2018-08-20T21:20:06.543Z,99.90
2018-08-20T21:22:37.503Z,99.90
2018-08-20T21:25:07.704Z,99.90
2018-08-20T21:27:36.534Z,99.90
2018-08-20T21:30:05.604Z,99.90
2018-08-20T21:35:21.975Z,99.90
2018-08-20T21:37:50.756Z,99.70
2018-08-20T21:40:25.042Z,99.40
2018-08-20T21:42:53.806Z,99.30
2018-08-20T21:45:22.826Z,99.90
2018-08-20T21:47:52.723Z,99.90
2018-08-20T21:50:21.644Z,99.90
2018-08-20T21:52:50.459Z,99.90
2018-08-20T21:55:19.354Z,99.90
2018-08-20T21:57:53.819Z,99.90
2018-08-20T22:00:22.810Z,99.90
2018-08-20T22:03:00.950Z,99.90
2018-08-20T22:05:29.810Z,99.90
2018-08-20T22:07:59.599Z,99.90
2018-08-20T22:10:29.226Z,99.90
2018-08-20T22:12:58.006Z,99.90
2018-08-20T22:15:26.872Z,99.90
2018-08-20T22:17:55.722Z,99.90
2018-08-20T22:20:24.596Z,99.90
2018-08-20T22:22:53.458Z,99.90
2018-08-20T22:25:22.374Z,99.90
2018-08-20T22:27:54.089Z,99.90
2018-08-20T22:30:22.968Z,99.90
2018-08-20T22:32:52.022Z,99.90
2018-08-20T22:35:23.962Z,99.90
2018-08-20T22:37:53.063Z,99.90
2018-08-20T22:40:22.346Z,99.90
2018-08-20T22:42:55.251Z,99.90
2018-08-20T22:45:24.115Z,99.90
2018-08-20T22:47:53.031Z,99.90
2018-08-20T22:50:21.985Z,99.90
2018-08-20T22:52:51.615Z,99.90
2018-08-20T22:55:21.471Z,99.90
2018-08-20T22:58:10.082Z,99.90
2018-08-20T23:00:38.956Z,99.90
2018-08-20T23:03:07.838Z,99.90
2018-08-20T23:05:36.752Z,99.90
2018-08-20T23:08:11.404Z,99.90
2018-08-20T23:10:42.114Z,99.90
2018-08-20T23:13:10.939Z,99.90
2018-08-20T23:15:39.934Z,99.90
2018-08-20T23:18:08.879Z,99.90
2018-08-20T23:20:37.695Z,99.90
2018-08-20T23:23:06.550Z,99.90
2018-08-20T23:25:35.452Z,99.90
2018-08-20T23:28:04.339Z,99.90
2018-08-20T23:30:33.194Z,99.90
2018-08-20T23:33:02.076Z,99.90
2018-08-20T23:35:31.027Z,99.90
2018-08-20T23:37:59.898Z,99.90
2018-08-20T23:40:28.752Z,99.90
2018-08-20T23:42:57.606Z,99.90
2018-08-20T23:45:26.486Z,99.90
2018-08-20T23:47:55.298Z,99.90
2018-08-20T23:50:24.139Z,99.90
2018-08-20T23:52:52.957Z,99.90
2018-08-20T23:55:21.791Z,99.90
2018-08-20T23:57:50.736Z,99.90
